Timeline UpdatesTrip UpdatesNews PostsPvt PostsTravel TipsAdmin PostsConv PostsFollowed PostsChat RequestsBlog PostsPNR Posts

Disclaimer
Search
 
 
Sun Apr 20, 2014 13:49:33 ISTHomeTrainsΣChainsAtlasPNRForumGalleryNewsFAQTripsMembersLoginFeedback
Latest...
.
Thu Jan 03, 2013 (07:52PM)
⇐ Return Journey: Train# 12137

12138/Punjab Mail

Dec 31 2013 (1:19PM)
Change Departure Station:
Change Arrival Station:
Post a Train Travel TipPost a Train Travel Tip **new
Post a Comment/Question/Picture/VideoPost a Comment/Question/Picture/Video
Inaugural Run
Sat Jun 01, 1912
Pantry/Catering
✓ Pantry Car Avbl
✓ Catering Avbl
RSA - Rake Sharing
No RSA.
Rake/Coach Composition
Loco-SLR(Ladies+ RMS)-GEN (Military)-HA1-A1-AB1-B1-B2-B3-B4-B5-S1-PC-S2-S3-S4-S5-S6-S7-S8-S9-S10-GEN-GEN-SLR
Loco
FZR-NDLS=> BGKT WDP-4/4B; NDLS-IGP=> GZB WAP-4; IGP-CSTM=> KYN WCAM-2P/3
News    PNR    Forum    Time-Table    Availability    Fare Chart    Map    Arr/Dep History    Trips    Gallery    ΣChains    X/O    Timeline    
Travel Time: 13h 28m    15 halts    Distance: 767 km    Avg Speed: 56 km/hr
Type: SuperFast
Zone: CR/Central
Departs @ 18:07 (Avg 1h 20m late)
Platform# 2
SMTWTFS
Hoshangabad/HBD 
Arrives @ 07:35 +1 night (Avg 1h 29m late)
Platform# 14
SMTWTFS
Mumbai CST/CSTM 

15 halts. 121 intermediate Stations between Hoshangabad and Mumbai CST

Show ALL intermediate Stations  Show Old Time-Table

#CodeStation NameX/OArrivesAvgDepartsAvgHaltPFDay#KmSpeedElevZoneAddress
1FZRFirozpur Cantt. Junction (5)  -21:40+011-1163.677200mNRFirozpur Cantt 152001, Punjab
2FDKFaridkot (3)  22:05+1022:07+102m11-1131.355202mNRFaridkot, Punjab
3KKPKot Kapura Junction (3)  22:21+1022:23+102m11-1118.6650mNRKotkapura, Punjab
4GJUTGangsar Jaitu (3)X  22:38+1122:40+112m11-1102.361207mNRJaitu, Punjab
5GNAGoneana Bhai Jagta (3)  22:54+1122:56+122m11-1088.225206mNRGoniana, Punjab
6BTIBathinda Junction (6)X  23:25+023:35+210m41-1075.879208mNRBathinda, Punjab
7MAURMaur  00:02+900:04+92m12-1040.375220mNRMaur Mandi, Punjab
8MSZMansa  00:19+1000:21+102m12-1021.669222mNRMansa, Punjab
9BLZBudhlada  00:35+1100:37+112m12-1005.571223mNRBudhlada, Punjab
10BRZBareta  00:50+1100:52+142m12-990.153223mNRBareta, Punjab
11JHLJakhal JunctionX  01:08+1301:10+132m--2-975.952225mNRJakhal, Haryana
12TUNTohana (2)X  01:24+1401:26+142m12-963.780232mNRTohana, Haryana
13NRWNarwana Junction (4)  01:45+1701:47+182m--2-938.260235mNRWay to Narwana, Haryana
14JINDJind Junction (3)X  02:21+1202:23+132m--2-904.370222mNR126102., Haryana
15ROKRohtak Junction (3)  03:12+1603:14+172m--2-847.281220mNRRohtak, Haryana
16BGZBahadurgarh  03:44+2103:46+212m--2-806.948220mNRBahadurgarh, Haryana
17SSBShakur Basti  04:11+1704:13+192m--2-787.035216mNRPitampura, Delhi NCT
18DKZDelhi KishanGanj (2)  04:25+2104:27+212m12-780.010220mNRSarai Rohilla, Delhi NCT
19NDLSNew Delhi (16)X04:50+1805:15+1925m32-776.158215mNRAjmeri Gate/Paharganj, Delhi NCT
20FDBFaridabad (4)  05:44+2405:46+242m32-748.061206mNRFaridabad, Haryana
21KSVKosi Kalan (3)O  06:57+1906:59+222m12-676.365189mNCRKosi Kalan, Uttar Pradesh
22MTJMathura Junction (10)X  07:37+2207:40+223m12-634.873179mNCRMathura, Uttar Pradesh
23RKMRaja Ki Mandi (4)X  08:21+2608:23+262m22-585.19170mNCRAgra, Uttar Pradesh
24AGCAgra Cantt. (6)X  08:50+1608:55+175m12-581.190174mNCRAgra, Uttar Pradesh
25DHODholpur Junction (3)X  09:30+2909:32+312m12-528.570177mNCRDholpur, Rajasthan
26MRAMorena (3)  09:55+3109:57+322m12-501.775176mNCRMorena, Madhya Pradesh
27GWLGwalior Junction (4)  10:28+4110:33+445m12-463.163214mNCRGwalior, Madhya Pradesh
28DBADabra (3)X  11:13+4511:15+452m12-420.867204mNCRDabra(District-Gwalior), Madhya Pradesh
29DAADatia (2)O  11:42+4711:44+472m12-390.537264mNCRDatia, Madhya Pradesh
30JHSJhansi Junction (7)X  12:25+3612:33+408m32-365.461259mNCRJhansi, Uttar Pradesh
31BABBabina (3)X  12:58+4913:00+502m12-339.986285mNCRBabina, Uttar Pradesh
32LARLalitpur (3)  13:45+5313:47+532m12-275.165373mNCRLalitpur, Uttar Pradesh
33BINABina Junction (5)  14:45+5814:50+585m22-212.286414mWCRJn Pt - KATNI/GUNA/ BPL/JHS, Madhya Pradesh
34BAQGanj Basoda (4)  15:22+1:0315:24+1:032m22-166.584416mWCRVidisha, Madhya Pradesh
35BHSVidisha (3)X  15:52+1:0615:54+1:072m22-127.257432mWCRVidisha, Madhya Pradesh
36BPLBhopal Junction (6)X  16:50+5916:55+1:005m12-73.638497mWCRBhopal, Madhya Pradesh
37HBJBhopal HabibGanj (5)  17:05+1:0417:07+1:052m12-67.470496mWCRHabibGanj, Madhya Pradesh
38HBD»Hoshangabad (4)»X  18:05+1:2018:07+1:202m220.039308mWCRHoshangabad, Madhya Pradesh
39ETItarsi Junction (7)  18:35+1:2018:40+1:285m4218.184329mWCRItarsi 461111, Madhya Pradesh
40BPFBanapura (2)X  19:04+1:3219:06+1:322m1251.682314mWCRBanapura, Madhya Pradesh
41HDHarda (3)  19:37+1:3219:39+1:322m1293.976289mWCRHarda, Madhya Pradesh
42KKNKhirkiya (2)  20:04+1:1720:06+1:172m12125.449281mWCRSH 15, Madhya Pradesh
43KNWKhandwa Junction (5)X  21:40+1:0221:45+1:025m22201.586310mCRKhandwa, Madhya Pradesh
44BAUBurhanpur (2)  22:33+1:0622:35+1:062m12270.465269mCRBurhanpur, Madhya Pradesh
45BSLBhusaval Junction (8)X  23:25+1:0223:35+1:0410m32324.960208mCRBhusaval 425201, Maharashtra
46JLJalgaon Junction (4)  23:59+1:0700:01+1:082m22349.096213mCRJalgaon 425001, Maharashtra
47CSNChalisgaon Junction (3)  00:59+1:1601:01+1:162m13441.683352mCRChalisgaon 424101, Maharashtra
48MMRManmad Junction (6)XO  01:50+1:2001:55+1:245m33509.187580mCRManmad 423104, Maharashtra
49NKNasik Road (3)XO  02:45+1:3102:50+1:305m33581.843563mCRNashik 422101, Maharashtra
50DVLDevlali (3)X  02:58+1:2903:00+1:302m23587.632561mCRDist. Nashik 422401, Maharashtra
51IGPIgatpuri (4)04:25+5104:30+1:055m33632.545589mCRIgatpuri 422403, Maharashtra
52KYNKalyan Junction (8)X  06:20+1:3806:25+1:355m53714.35910mCRKalyan 421301, Maharashtra
53DRMumbai Dadar Central (8)X  07:10+1:3507:15+1:345m63758.8267mCRMumbai 400014, Maharashtra
54CSTM•Mumbai CST (18)•  07:35+1:29-143767.4-10mCRMumbai 400001, Maharashtra
Scroll to Top
Scroll to Bottom